Otay Mountain (75, 260, 536) Station Data

Red Flag Warning: No
Fire Weather Zone: 250
SDGE Region: Eastern
Lat/Lon: 32.599/-116.843

Observations

Time Wind Speed/Gust Temp(F) RH Fuel Moist Fuel Temp(F) Dewpt(F) Tmax(F) Tmin(F) Accum Precip 10-min Precip SL Press(mb)
4/29 11:50pm 324 8 G 9 62° 11% - - 69.8° 53.9° - - -
4/29 11:40pm 326 9 G 10 62° 11% - - 69.8° 53.9° - - -
4/29 11:30pm 335 8 G 9 62° 11% - - 69.8° 53.9° - - -
4/29 11:20pm 328 7 G 8 62° 11% - - 69.8° 53.9° - - -
4/29 11:10pm 336 7 G 9 62° 13% - - 10° 69.8° 53.9° - - -
4/29 11:00pm 347 7 G 9 61° 13% - - 10° 69.8° 53.9° - - -
4/29 10:50pm 359 7 G 8 61° 15% - - 12° 69.8° 53.9° - - -
4/29 10:40pm 14 7 G 9 59° 19% - - 17° 69.8° 53.9° - - -
4/29 10:30pm 24 9 G 11 59° 19% - - 17° 69.8° 53.9° - - -
4/29 10:20pm 19 10 G 11 59° 19% - - 17° 69.8° 53.9° - - -
4/29 10:10pm 6 9 G 11 60° 18% - - 17° 69.8° 53.9° - - -
4/29 10:00pm 352 9 G 11 59° 19% - - 17° 69.8° 53.9° - - -
4/29 9:50pm 347 10 G 12 59° 19% - - 17° 69.8° 53.9° - - -
4/29 9:40pm 346 10 G 12 60° 15% - - 12° 69.8° 53.9° - - -
4/29 9:30pm 331 11 G 13 59° 11% - - 69.8° 53.9° - - -
4/29 9:20pm 328 9 G 13 58° 13% - - 69.8° 53.9° - - -
4/29 9:10pm 329 10 G 13 58° 15% - - 11° 69.8° 53.9° - - -
4/29 9:00pm 324 9 G 14 58° 17% - - 14° 69.8° 53.9° - - -
4/29 8:50pm 314 7 G 10 58° 19% - - 16° 69.8° 53.9° - - -
4/29 8:40pm 317 8 G 11 58° 18% - - 15° 69.8° 53.9° - - -
4/29 8:30pm 329 8 G 11 58° 17% - - 13° 69.8° 53.9° - - -
4/29 8:20pm 325 8 G 11 59° 15% - - 10° 69.8° 53.9° - - -
4/29 8:10pm 329 10 G 11 58° 15% - - 11° 69.8° 53.9° - - -
4/29 8:00pm 332 8 G 11 59° 15% - - 11° 69.8° 53.9° - - -
4/29 7:50pm 320 6 G 8 59° 15% - - 11° 69.8° 53.9° - - -
4/29 7:40pm 295 7 G 8 59° 15% - - 11° 69.8° 53.9° - - -
4/29 7:30pm 281 8 G 11 59° 15% - - 11° 69.8° 53.9° - - -
4/29 7:20pm 278 10 G 12 60° 16% - - 13° 69.8° 53.9° - - -
4/29 7:10pm 266 11 G 14 61° 15% - - 13° 69.8° 53.9° - - -
4/29 7:00pm 264 14 G 18 61° 15% - - 13° 69.8° 53.9° - - -
4/29 6:50pm 263 15 G 20 61° 14% - - 13° 69.8° 53.9° - - -
4/29 6:40pm 259 16 G 23 62° 14% - - 12° 69.8° 53.9° - - -
4/29 6:30pm 260 17 G 20 62° 14% - - 12° 69.8° 53.9° - - -
4/29 6:20pm 263 17 G 21 63° 14% - - 12° 69.8° 53.9° - - -
4/29 6:10pm 263 17 G 21 63° 14% - - 13° 69.8° 53.9° - - -
4/29 6:00pm 263 16 G 21 63° 14% - - 13° 69.8° 53.9° - - -
4/29 5:50pm 258 15 G 19 63° 14% - - 13° 69.8° 53.9° - - -
4/29 5:40pm 257 15 G 20 63° 14% - - 13° 69.8° 53.9° - - -
4/29 5:30pm 263 14 G 20 64° 14% - - 14° 69.8° 53.9° - - -
4/29 5:20pm 256 14 G 19 64° 14% - - 14° 69.8° 53.9° - - -
4/29 5:10pm 261 14 G 21 64° 14% - - 13° 69.8° 53.9° - - -
4/29 5:00pm 265 12 G 18 65° 14% - - 14° 69.8° 53.9° - - -
4/29 4:50pm 258 12 G 17 65° 14% - - 14° 69.8° 53.9° - - -
4/29 4:40pm 261 12 G 20 65° 14% - - 15° 69.8° 53.9° - - -
4/29 4:30pm 262 14 G 20 64° 14% - - 14° 69.8° 53.9° - - -
4/29 4:20pm 255 14 G 21 65° 13% - - 14° 69.8° 53.9° - - -
4/29 4:10pm 258 13 G 20 65° 13% - - 14° 69.8° 53.9° - - -
4/29 4:00pm 255 13 G 20 65° 13% - - 13° 69.8° 53.9° - - -
4/29 3:50pm 257 14 G 20 65° 13% - - 12° 69.8° 53.9° - - -
4/29 3:40pm 263 11 G 18 66° 12% - - 13° 69.8° 53.9° - - -
4/29 3:30pm 264 10 G 15 67° 12% - - 13° 69.8° 53.9° - - -
4/29 3:20pm 270 9 G 17 66° 12% - - 13° 69.8° 53.9° - - -
4/29 3:10pm 261 13 G 20 66° 12% - - 12° 69.8° 53.9° - - -
4/29 3:00pm 260 9 G 15 67° 12% - - 13° 69.8° 53.9° - - -
4/29 2:50pm 276 8 G 16 67° 13% - - 14° 69.8° 53.9° - - -
4/29 2:40pm 261 10 G 18 66° 12% - - 13° 69.8° 53.9° - - -
4/29 2:30pm 266 12 G 19 66° 12% - - 13° 69.8° 53.9° - - -
4/29 2:20pm 268 12 G 18 66° 13% - - 13° 69.8° 53.9° - - -
4/29 2:10pm 268 10 G 17 66° 13% - - 14° 69.8° 53.9° - - -
4/29 2:00pm 283 10 G 21 66° 13% - - 13° 69.8° 53.9° - - -
4/29 1:50pm 262 10 G 21 66° 13% - - 14° 69.8° 53.9° - - -
4/29 1:40pm 266 11 G 21 68° 12% - - 14° 69.8° 53.9° - - -
4/29 1:30pm 83 8 G 17 69° 10% - - 11° 69.8° 53.9° - - -
4/29 1:20pm 80 7 G 12 68° 10% - - 10° 69.8° 53.9° - - -
4/29 1:10pm 205 4 G 10 68° 12% - - 14° 69.8° 53.9° - - -
4/29 1:00pm 248 8 G 15 66° 12% - - 13° 69.8° 53.9° - - -
4/29 12:50pm 277 5 G 11 68° 12% - - 14° 69.8° 53.9° - - -
4/29 12:40pm 216 3 G 7 68° 12% - - 14° 69.4° 53.9° - - -
4/29 12:30pm 287 3 G 9 67° 12% - - 13° 68° 53.9° - - -
4/29 12:20pm 280 6 G 14 66° 13% - - 14° 68° 53.9° - - -
4/29 12:10pm 256 6 G 14 67° 13% - - 15° 68° 53.9° - - -
4/29 12:00pm 309 6 G 12 66° 11% - - 11° 67.4° 53.9° - - -
4/29 11:50am 317 6 G 12 66° 12% - - 11° 67.4° 53.9° - - -
4/29 11:40am 279 4 G 8 65° 11% - - 66.8° 53.9° - - -
4/29 11:30am 74 6 G 15 65° 10% - - 66.2° 53.9° - - -
4/29 11:20am 63 7 G 15 64° 11% - - 64.7° 53.9° - - -
4/29 11:10am 78 8 G 17 64° 11% - - 64.7° 53.9° - - -
4/29 11:00am 73 9 G 15 64° 11% - - 64.7° 53.9° - - -
4/29 10:50am 73 7 G 13 63° 11% - - 64.7° 53.9° - - -
4/29 10:40am 77 8 G 16 63° 11% - - 64.7° 53.9° - - -
4/29 10:30am 74 10 G 19 63° 12% - - 64.7° 53.9° - - -
4/29 10:20am 72 13 G 20 62° 12% - - 63.1° 53.9° - - -
4/29 10:10am 70 11 G 17 62° 12% - - 63.1° 53.9° - - -
4/29 10:00am 73 10 G 17 61° 12% - - 62.4° 53.9° - - -
4/29 9:50am 73 13 G 19 61° 11% - - 62.4° 53.9° - - -
4/29 9:40am 70 13 G 20 61° 11% - - 62.4° 53.9° - - -
4/29 9:30am 70 14 G 21 61° 11% - - 61.6° 53.9° - - -
4/29 9:20am 76 14 G 20 61° 12% - - 61.6° 53.9° - - -
4/29 9:10am 78 16 G 23 60° 12% - - 61.1° 53.9° - - -
4/29 9:00am 73 18 G 24 59° 12% - - 60.9° 53.9° - - -
4/29 8:50am 73 18 G 25 59° 12% - - 60.9° 53.9° - - -
4/29 8:40am 72 20 G 27 58° 12% - - 60.9° 53.9° - - -
4/29 8:30am 69 22 G 27 57° 12% - - 60.9° 53.9° - - -
4/29 8:20am 70 21 G 32 57° 12% - - 60.9° 53.9° - - -
4/29 8:10am 67 23 G 29 56° 12% - - 60.9° 53.9° - - -
4/29 8:00am 72 21 G 30 56° 12% - - 60.9° 53.9° - - -
4/29 7:50am 73 20 G 25 56° 12% - - 60.9° 53.9° - - -
4/29 7:40am 68 21 G 27 56° 12% - - 60.9° 53.9° - - -
4/29 7:30am 69 21 G 28 56° 12% - - 60.9° 53.9° - - -
4/29 7:20am 72 21 G 27 56° 12% - - 60.9° 53.9° - - -
4/29 7:10am 73 18 G 25 55° 13% - - 60.9° 53.9° - - -
4/29 7:00am 76 18 G 25 55° 13% - - 60.9° 53.9° - - -
4/29 6:50am 95 15 G 24 55° 13% - - 60.9° 53.9° - - -
4/29 6:40am 71 18 G 25 55° 12% - - 60.9° 53.9° - - -
4/29 6:30am 74 17 G 25 55° 13% - - 60.9° 53.9° - - -
4/29 6:20am 95 15 G 22 54° 13% - - 60.9° 53.9° - - -
4/29 6:10am 80 15 G 22 54° 13% - - 60.9° 54° - - -
4/29 6:00am 90 15 G 23 55° 13% - - 60.9° 54.4° - - -
4/29 5:50am 90 16 G 24 55° 13% - - 60.9° 54.4° - - -
4/29 5:40am 86 15 G 23 55° 13% - - 60.9° 54.5° - - -
4/29 5:30am 91 15 G 25 55° 13% - - 60.9° 54.5° - - -
4/29 5:20am 99 17 G 25 55° 13% - - 60.9° 54.6° - - -
4/29 5:10am 106 19 G 26 55° 13% - - 60.9° 54.6° - - -
4/29 5:00am 100 16 G 23 55° 13% - - 60.9° 54.6° - - -
4/29 4:50am 95 15 G 24 55° 13% - - 60.9° 55° - - -
4/29 4:40am 98 16 G 22 55° 13% - - 60.9° 55.1° - - -
4/29 4:30am 100 16 G 23 55° 13% - - 60.9° 55.1° - - -
4/29 4:20am 104 18 G 27 56° 13% - - 60.9° 55.4° - - -
4/29 4:10am 85 18 G 25 56° 13% - - 60.9° 55.4° - - -
4/29 4:00am 89 18 G 25 56° 13% - - 60.9° 55.4° - - -
4/29 3:50am 79 19 G 28 56° 13% - - 60.9° 55.8° - - -
4/29 3:40am 84 20 G 32 56° 13% - - 60.9° 55.9° - - -
4/29 3:30am 89 20 G 30 56° 13% - - 60.9° 56° - - -
4/29 3:20am 94 22 G 32 57° 13% - - 60.9° 56.4° - - -
4/29 3:10am 100 23 G 32 57° 13% - - 60.9° 56.7° - - -
4/29 3:00am 100 24 G 34 57° 13% - - 60.9° 57° - - -
4/29 2:50am 100 23 G 33 57° 12% - - 60.9° 57.1° - - -
4/29 2:40am 105 27 G 35 58° 12% - - 60.9° 57.6° - - -
4/29 2:30am 92 21 G 33 58° 12% - - 60.9° 57.6° - - -
4/29 2:20am 103 22 G 33 58° 11% - - 60.9° 57.6° - - -
4/29 2:10am 105 19 G 30 58° 12% - - 60.9° 57.6° - - -
4/29 2:00am 99 16 G 25 58° 12% - - 60.9° 57.6° - - -
4/29 1:50am 88 13 G 22 58° 13% - - 60.9° 57.6° - - -
4/29 1:40am 83 14 G 25 58° 13% - - 60.9° 57.8° - - -
4/29 1:30am 87 13 G 20 58° 13% - - 60.9° 57.8° - - -
4/29 1:20am 80 13 G 18 58° 14% - - 60.9° 57.8° - - -
4/29 1:10am 73 14 G 22 59° 14% - - 60.9° 58.2° - - -
4/29 1:00am 83 14 G 22 59° 14% - - 60.9° 58.4° - - -
4/29 12:50am 84 14 G 22 59° 14% - - 10° 60.9° 58.4° - - -
4/29 12:40am 102 15 G 24 59° 14% - - 11° 60.9° 58.8° - - -
4/29 12:30am 103 19 G 26 60° 14% - - 10° 60.9° 59.4° - - -
4/29 12:20am 94 20 G 26 60° 14% - - 11° 60.9° 59.8° - - -
4/29 12:10am 92 20 G 25 60° 14% - - 11° 60.9° 60.1° - - -
4/29 12:00am 94 19 G 24 61° 13% - - 62.1° 49.6° - - -
4/28 11:50pm 90 18 G 25 61° 14% - - 12° 62.1° 49.6° - - -
4/28 11:40pm 97 15 G 22 61° 23% - - 22° 61.8° 49.6° - - -
4/28 11:30pm 95 10 G 15 60° 25% - - 25° 61.8° 49.6° - - -
4/28 11:20pm 92 8 G 13 60° 26% - - 26° 61.8° 49.6° - - -
4/28 11:10pm 81 5 G 8 60° 27% - - 26° 61.8° 49.6° - - -
4/28 11:00pm 55 5 G 7 61° 26% - - 26° 61.8° 49.6° - - -
4/28 10:50pm 52 6 G 11 60° 27% - - 26° 61.8° 49.6° - - -
4/28 10:40pm 49 10 G 14 59° 27% - - 25° 61.8° 49.6° - - -
4/28 10:30pm 30 9 G 13 58° 25% - - 22° 61.8° 49.6° - - -
4/28 10:20pm 343 12 G 14 58° 24% - - 22° 61.8° 49.6° - - -
4/28 10:10pm 341 12 G 16 58° 24% - - 21° 61.8° 49.6° - - -
4/28 10:00pm 318 11 G 17 57° 25% - - 21° 61.8° 49.6° - - -
4/28 9:50pm 299 13 G 20 57° 24% - - 21° 61.8° 49.6° - - -
4/28 9:40pm 301 13 G 21 57° 26% - - 22° 61.8° 49.6° - - -
4/28 9:30pm 304 12 G 19 57° 28% - - 24° 61.8° 49.6° - - -
4/28 9:20pm 303 14 G 22 56° 30% - - 25° 61.8° 49.6° - - -
4/28 9:10pm 302 15 G 20 56° 34% - - 28° 61.8° 49.6° - - -
4/28 9:00pm 301 14 G 21 55° 37% - - 29° 61.8° 49.6° - - -
4/28 8:50pm 300 18 G 23 56° 37% - - 30° 61.8° 49.6° - - -
4/28 8:40pm 300 17 G 23 55° 38% - - 30° 61.8° 49.6° - - -
4/28 8:30pm 299 14 G 18 54° 48% - - 35° 61.8° 49.6° - - -
4/28 8:20pm 295 17 G 20 54° 51% - - 37° 61.8° 49.6° - - -
4/28 8:10pm 304 14 G 20 54° 50% - - 36° 61.8° 49.6° - - -
4/28 8:00pm 298 12 G 18 54° 51% - - 37° 61.8° 49.6° - - -
4/28 7:50pm 305 12 G 18 55° 50% - - 37° 61.8° 49.6° - - -
4/28 7:40pm 298 11 G 15 54° 56% - - 39° 61.8° 49.6° - - -
4/28 7:30pm 287 14 G 21 54° 60% - - 41° 61.8° 49.6° - - -
4/28 7:20pm 282 14 G 20 54° 64% - - 42° 61.8° 49.6° - - -
4/28 7:10pm 276 16 G 22 55° 67% - - 44° 61.8° 49.6° - - -
4/28 7:00pm 281 15 G 19 55° 69% - - 45° 61.8° 49.6° - - -
4/28 6:50pm 278 14 G 18 56° 66% - - 45° 61.8° 49.6° - - -
4/28 6:40pm 272 14 G 21 56° 68% - - 46° 61.8° 49.6° - - -
4/28 6:30pm 274 16 G 20 56° 70% - - 46° 61.8° 49.6° - - -
4/28 6:20pm 278 16 G 20 56° 71% - - 46° 61.8° 49.6° - - -
4/28 6:10pm 282 15 G 19 56° 71% - - 47° 61.8° 49.6° - - -
4/28 6:00pm 270 14 G 20 57° 68% - - 46° 61.8° 49.6° - - -